createdAt,value
2018-03-11T11:49:00.511Z,16.60
2018-03-11T11:51:28.744Z,16.70
2018-03-11T11:53:56.219Z,16.70
2018-03-11T11:56:23.725Z,16.80
2018-03-11T11:58:51.242Z,16.90
2018-03-11T12:01:19.484Z,16.70
2018-03-11T12:03:46.990Z,16.80
2018-03-11T12:06:15.256Z,16.90
2018-03-11T12:08:43.524Z,17.10
2018-03-11T12:11:11.005Z,17.10
2018-03-11T12:13:38.503Z,17.30
2018-03-11T12:16:06.010Z,17.30
2018-03-11T12:18:34.284Z,17.50
2018-03-11T12:21:02.583Z,17.60
2018-03-11T12:23:30.081Z,17.50
2018-03-11T12:25:57.587Z,17.70
2018-03-11T12:28:25.832Z,18.10
2018-03-11T12:30:53.337Z,18.10
2018-03-11T12:33:20.816Z,18.30
2018-03-11T12:35:48.345Z,18.70
2018-03-11T12:38:15.841Z,19.10
2018-03-11T12:40:43.332Z,19.40
2018-03-11T12:43:10.862Z,19.60
2018-03-11T12:45:38.398Z,19.80
2018-03-11T12:48:05.951Z,20.00
2018-03-11T12:50:34.375Z,20.20
2018-03-11T12:53:01.916Z,20.20
2018-03-11T12:55:29.372Z,19.90
2018-03-11T12:57:56.884Z,19.70
2018-03-11T13:00:25.134Z,19.20
2018-03-11T13:02:53.399Z,19.00
2018-03-11T13:05:20.918Z,19.00
2018-03-11T13:07:49.315Z,18.80
2018-03-11T13:10:16.823Z,18.60
2018-03-11T13:12:44.316Z,18.30
2018-03-11T13:15:11.832Z,18.00
2018-03-11T13:17:40.811Z,17.50
2018-03-11T13:20:20.371Z,17.50
2018-03-11T13:22:48.612Z,16.90
2018-03-11T13:25:16.111Z,16.90
2018-03-11T13:27:56.277Z,16.40
2018-03-11T13:30:24.600Z,16.00
2018-03-11T13:33:04.083Z,16.00
2018-03-11T13:35:32.379Z,15.50
2018-03-11T13:38:12.558Z,15.20
2018-03-11T13:40:41.520Z,15.20
2018-03-11T13:43:09.848Z,14.80
2018-03-11T13:45:49.279Z,14.80
2018-03-11T13:48:17.577Z,14.60
2018-03-11T13:50:45.075Z,14.60
2018-03-11T13:53:25.126Z,14.60
2018-03-11T13:55:53.375Z,14.60
2018-03-11T13:58:32.758Z,14.60
2018-03-11T14:01:00.224Z,14.70
2018-03-11T14:03:27.767Z,14.70
2018-03-11T14:05:55.282Z,14.60
2018-03-11T14:08:23.555Z,14.40
2018-03-11T14:10:51.062Z,14.40
2018-03-11T14:13:18.611Z,14.40
2018-03-11T14:15:46.112Z,14.30
2018-03-11T14:18:13.665Z,14.30
2018-03-11T14:20:41.161Z,14.40
2018-03-11T14:23:08.649Z,14.40
2018-03-11T14:25:36.236Z,14.40
2018-03-11T14:28:03.718Z,14.50
2018-03-11T14:30:31.222Z,14.60
2018-03-11T14:32:58.720Z,14.70
2018-03-11T14:35:26.231Z,14.90
2018-03-11T14:37:54.524Z,15.20
2018-03-11T14:40:22.036Z,15.10
2018-03-11T14:42:49.579Z,15.30
2018-03-11T14:45:17.060Z,15.30
2018-03-11T14:47:44.545Z,15.40
2018-03-11T14:50:12.795Z,15.90
2018-03-11T14:52:40.276Z,15.80
2018-03-11T14:55:08.558Z,16.40
2018-03-11T14:57:36.829Z,16.80
2018-03-11T15:00:05.145Z,17.20
2018-03-11T15:02:32.612Z,17.10
2018-03-11T15:05:00.158Z,17.50
2018-03-11T15:07:27.669Z,17.70
2018-03-11T15:09:55.221Z,17.70
2018-03-11T15:12:22.703Z,17.60
2018-03-11T15:14:51.003Z,17.40
2018-03-11T15:17:18.516Z,17.40
2018-03-11T15:19:46.067Z,17.20
2018-03-11T15:22:13.545Z,17.00
2018-03-11T15:24:41.814Z,16.50
2018-03-11T15:27:10.098Z,16.30
2018-03-11T15:29:38.370Z,16.10
2018-03-11T15:32:05.868Z,16.10
2018-03-11T15:34:33.377Z,15.80
2018-03-11T15:37:01.445Z,15.60
2018-03-11T15:39:28.964Z,15.40
2018-03-11T15:41:56.451Z,15.30
2018-03-11T15:44:23.939Z,15.10
2018-03-11T15:46:52.574Z,14.80
2018-03-11T15:49:20.092Z,14.80
2018-03-11T15:51:48.358Z,14.50
2018-03-11T15:54:16.629Z,14.30
2018-03-11T15:56:44.147Z,14.30
2018-03-11T15:59:11.657Z,14.10
2018-03-11T16:01:39.904Z,13.60
2018-03-11T16:04:07.395Z,13.50
2018-03-11T16:06:35.913Z,13.20
2018-03-11T16:09:03.402Z,13.20
2018-03-11T16:11:30.997Z,13.10
2018-03-11T16:13:59.288Z,12.80
2018-03-11T16:16:26.972Z,12.80
2018-03-11T16:18:54.711Z,12.70
2018-03-11T16:21:22.232Z,12.60
2018-03-11T16:23:49.789Z,12.50
2018-03-11T16:26:17.324Z,12.40
2018-03-11T16:28:44.820Z,12.30
2018-03-11T16:31:13.111Z,12.20
2018-03-11T16:33:41.378Z,12.10
2018-03-11T16:36:09.679Z,12.00
2018-03-11T16:38:37.209Z,12.00
2018-03-11T16:41:04.732Z,11.90
2018-03-11T16:43:32.242Z,11.90
2018-03-11T16:46:00.508Z,11.80
2018-03-11T16:48:28.795Z,11.80
2018-03-11T16:50:57.071Z,11.70
2018-03-11T16:53:24.678Z,11.70
2018-03-11T16:55:52.183Z,11.70
2018-03-11T16:58:20.506Z,11.50
2018-03-11T17:00:47.993Z,11.50
2018-03-11T17:03:15.492Z,11.50
2018-03-11T17:05:43.033Z,11.40
2018-03-11T17:08:11.319Z,11.30
2018-03-11T17:10:38.851Z,11.30
2018-03-11T17:13:06.425Z,11.30
2018-03-11T17:15:34.740Z,11.20
2018-03-11T17:18:02.486Z,11.20
2018-03-11T17:20:30.114Z,11.30
2018-03-11T17:22:57.600Z,11.30
2018-03-11T17:25:25.924Z,11.30
2018-03-11T17:27:53.549Z,11.30
2018-03-11T17:30:21.102Z,11.30
2018-03-11T17:32:48.636Z,11.30
2018-03-11T17:35:16.132Z,11.30
2018-03-11T17:37:43.715Z,11.30
2018-03-11T17:40:11.226Z,11.20
2018-03-11T17:42:39.649Z,11.10
2018-03-11T17:45:07.215Z,11.10
2018-03-11T17:47:34.793Z,11.10
2018-03-11T17:50:02.290Z,11.10
2018-03-11T17:52:30.581Z,11.10
2018-03-11T17:54:58.088Z,11.00
2018-03-11T17:57:25.633Z,11.10
2018-03-11T17:59:53.127Z,11.10
2018-03-11T18:02:21.369Z,11.00
2018-03-11T18:04:48.873Z,11.00
2018-03-11T18:07:17.122Z,11.00
2018-03-11T18:09:44.748Z,10.90
2018-03-11T18:12:12.254Z,10.90
2018-03-11T18:14:40.691Z,10.80
2018-03-11T18:17:08.220Z,10.80
2018-03-11T18:19:36.546Z,10.60
2018-03-11T18:22:04.053Z,10.60
2018-03-11T18:24:32.429Z,10.60
2018-03-11T18:27:00.774Z,10.60
2018-03-11T18:29:28.273Z,10.50
2018-03-11T18:31:55.834Z,10.60
2018-03-11T18:34:23.358Z,10.60
2018-03-11T18:36:50.878Z,10.60
2018-03-11T18:39:18.420Z,10.60
2018-03-11T18:41:45.972Z,10.60
2018-03-11T18:44:13.462Z,10.50
2018-03-11T18:46:41.035Z,10.40
2018-03-11T18:49:08.636Z,10.20
2018-03-11T18:51:36.955Z,10.00
2018-03-11T18:54:04.496Z,10.00
2018-03-11T18:56:32.021Z,9.90
2018-03-11T18:58:59.587Z,9.80
2018-03-11T19:01:27.839Z,9.70
2018-03-11T19:03:56.149Z,9.70
2018-03-11T19:06:24.622Z,9.70
2018-03-11T19:08:52.920Z,9.70
2018-03-11T19:11:20.462Z,9.70
2018-03-11T19:13:47.986Z,9.70
2018-03-11T19:16:15.615Z,9.60
2018-03-11T19:18:43.179Z,9.60
2018-03-11T19:21:12.222Z,9.60
2018-03-11T19:23:39.772Z,9.60
2018-03-11T19:26:08.100Z,9.60
2018-03-11T19:28:35.641Z,9.60
2018-03-11T19:31:04.002Z,9.60
2018-03-11T19:33:32.256Z,9.60
2018-03-11T19:35:59.764Z,9.60
2018-03-11T19:38:27.251Z,9.60
2018-03-11T19:40:54.812Z,9.60
2018-03-11T19:43:22.428Z,9.50
2018-03-11T19:45:49.903Z,9.50
2018-03-11T19:48:17.626Z,9.50
2018-03-11T19:50:45.126Z,9.40
2018-03-11T19:53:12.694Z,9.40
2018-03-11T19:55:40.228Z,9.30
2018-03-11T19:58:07.731Z,9.30
2018-03-11T20:00:35.366Z,9.20
2018-03-11T20:03:03.053Z,9.20
2018-03-11T20:05:30.571Z,9.10
2018-03-11T20:07:58.861Z,9.00
2018-03-11T20:10:26.526Z,9.00
2018-03-11T20:12:54.054Z,9.00
2018-03-11T20:15:22.366Z,9.00
2018-03-11T20:17:49.902Z,9.00
2018-03-11T20:20:18.154Z,8.90
2018-03-11T20:22:45.684Z,8.90
2018-03-11T20:25:13.209Z,8.90
2018-03-11T20:27:40.764Z,8.90
2018-03-11T20:30:08.298Z,8.80
2018-03-11T20:32:36.595Z,8.60
2018-03-11T20:35:04.152Z,8.60
2018-03-11T20:37:32.418Z,8.50
2018-03-11T20:40:00.747Z,8.50
2018-03-11T20:42:28.239Z,8.40
2018-03-11T20:44:55.767Z,8.40
2018-03-11T20:47:23.311Z,8.40
2018-03-11T20:49:50.865Z,8.30
2018-03-11T20:52:18.393Z,8.30
2018-03-11T20:54:46.730Z,8.20
2018-03-11T20:57:14.182Z,8.20
2018-03-11T20:59:41.831Z,8.10
2018-03-11T21:02:09.398Z,8.10
2018-03-11T21:04:36.980Z,8.10
2018-03-11T21:07:04.564Z,8.20
2018-03-11T21:09:32.067Z,8.20
2018-03-11T21:11:59.628Z,8.20
2018-03-11T21:14:27.113Z,8.20
2018-03-11T21:16:54.739Z,8.20
2018-03-11T21:19:22.257Z,8.20
2018-03-11T21:21:49.771Z,8.20
2018-03-11T21:24:17.278Z,8.30
2018-03-11T21:26:44.783Z,8.30
2018-03-11T21:29:12.304Z,8.30
2018-03-11T21:31:40.598Z,8.10
2018-03-11T21:34:08.086Z,8.10
2018-03-11T21:36:35.616Z,8.10
2018-03-11T21:39:03.450Z,8.00
2018-03-11T21:41:31.700Z,8.10
2018-03-11T21:43:59.199Z,8.00
2018-03-11T21:46:27.432Z,8.10
2018-03-11T21:48:54.916Z,8.10
2018-03-11T21:51:22.401Z,8.20
2018-03-11T21:53:49.921Z,8.30
2018-03-11T21:56:17.466Z,8.30
2018-03-11T21:58:44.940Z,8.30
2018-03-11T22:01:13.213Z,8.40
2018-03-11T22:03:40.694Z,8.40
2018-03-11T22:06:08.213Z,8.50
2018-03-11T22:08:35.702Z,8.50
2018-03-11T22:11:03.230Z,8.50
2018-03-11T22:13:30.697Z,8.50
2018-03-11T22:15:58.185Z,8.50
2018-03-11T22:18:26.431Z,8.40
2018-03-11T22:20:53.943Z,8.50
2018-03-11T22:23:21.440Z,8.40
2018-03-11T22:25:48.900Z,8.40
2018-03-11T22:28:16.393Z,8.30
2018-03-11T22:30:43.863Z,8.30
2018-03-11T22:33:11.365Z,8.20
2018-03-11T22:35:38.847Z,8.20
2018-03-11T22:38:06.327Z,8.20
2018-03-11T22:40:34.566Z,8.10
2018-03-11T22:43:02.141Z,8.00
2018-03-11T22:45:30.397Z,8.00
2018-03-11T22:47:57.902Z,8.00
2018-03-11T22:50:26.121Z,7.90
2018-03-11T22:52:53.603Z,7.90
2018-03-11T22:55:21.113Z,7.90
2018-03-11T22:57:48.589Z,7.90
2018-03-11T23:00:16.083Z,7.90
2018-03-11T23:02:43.601Z,8.00
2018-03-11T23:05:11.098Z,8.00
2018-03-11T23:07:38.551Z,8.00
2018-03-11T23:10:06.097Z,8.00
2018-03-11T23:12:33.589Z,8.00
2018-03-11T23:15:01.042Z,8.00
2018-03-11T23:17:28.549Z,8.00
2018-03-11T23:19:56.110Z,8.00
2018-03-11T23:22:23.618Z,8.10
2018-03-11T23:24:51.202Z,8.00
2018-03-11T23:27:19.420Z,8.00
2018-03-11T23:29:46.942Z,8.00
2018-03-11T23:32:14.421Z,7.90
2018-03-11T23:34:41.904Z,7.90
2018-03-11T23:37:09.363Z,7.80
2018-03-11T23:39:36.867Z,7.80
2018-03-11T23:42:05.109Z,7.90
2018-03-11T23:44:33.352Z,7.90
2018-03-11T23:47:00.859Z,8.00
2018-03-11T23:49:29.110Z,8.00
2018-03-11T23:51:56.601Z,8.00
2018-03-11T23:54:24.085Z,8.00
2018-03-11T23:56:51.577Z,8.00
2018-03-11T23:59:19.081Z,8.00
